sensor_id;sensor_type;location;lat;lon;timestamp;P1;durP1;ratioP1;P2;durP2;ratioP2
830;SDS011;397;50.564;7.272;2024-01-11T00:00:46;53.67;;;31.70;;
830;SDS011;397;50.564;7.272;2024-01-11T00:03:14;41.67;;;29.17;;
830;SDS011;397;50.564;7.272;2024-01-11T00:05:42;47.80;;;29.40;;
830;SDS011;397;50.564;7.272;2024-01-11T00:08:10;51.93;;;33.13;;
830;SDS011;397;50.564;7.272;2024-01-11T00:10:37;52.00;;;32.53;;
830;SDS011;397;50.564;7.272;2024-01-11T00:13:05;51.07;;;32.97;;
830;SDS011;397;50.564;7.272;2024-01-11T00:15:33;54.10;;;37.80;;
830;SDS011;397;50.564;7.272;2024-01-11T00:18:00;51.60;;;34.17;;
830;SDS011;397;50.564;7.272;2024-01-11T00:20:27;47.67;;;29.97;;
830;SDS011;397;50.564;7.272;2024-01-11T00:22:55;47.97;;;32.03;;
830;SDS011;397;50.564;7.272;2024-01-11T00:25:22;51.43;;;28.73;;
830;SDS011;397;50.564;7.272;2024-01-11T00:27:49;39.60;;;25.60;;
830;SDS011;397;50.564;7.272;2024-01-11T00:30:17;37.73;;;24.93;;
830;SDS011;397;50.564;7.272;2024-01-11T00:32:44;41.37;;;25.67;;
830;SDS011;397;50.564;7.272;2024-01-11T00:35:12;40.03;;;24.43;;
830;SDS011;397;50.564;7.272;2024-01-11T00:37:39;31.37;;;22.47;;
830;SDS011;397;50.564;7.272;2024-01-11T00:40:07;34.93;;;21.87;;
830;SDS011;397;50.564;7.272;2024-01-11T00:42:34;35.20;;;22.37;;
830;SDS011;397;50.564;7.272;2024-01-11T00:45:02;41.97;;;23.10;;
830;SDS011;397;50.564;7.272;2024-01-11T00:47:29;33.87;;;22.50;;
830;SDS011;397;50.564;7.272;2024-01-11T00:49:56;40.63;;;23.57;;
830;SDS011;397;50.564;7.272;2024-01-11T00:52:24;38.20;;;24.03;;
830;SDS011;397;50.564;7.272;2024-01-11T00:54:51;36.93;;;21.43;;
830;SDS011;397;50.564;7.272;2024-01-11T00:57:18;32.10;;;23.10;;
830;SDS011;397;50.564;7.272;2024-01-11T00:59:46;37.37;;;23.50;;
830;SDS011;397;50.564;7.272;2024-01-11T01:02:13;39.20;;;22.90;;
830;SDS011;397;50.564;7.272;2024-01-11T01:04:40;35.80;;;22.20;;
830;SDS011;397;50.564;7.272;2024-01-11T01:07:08;36.10;;;21.17;;
830;SDS011;397;50.564;7.272;2024-01-11T01:09:35;33.67;;;22.10;;
830;SDS011;397;50.564;7.272;2024-01-11T01:12:02;34.50;;;21.70;;
830;SDS011;397;50.564;7.272;2024-01-11T01:14:29;39.90;;;23.17;;
830;SDS011;397;50.564;7.272;2024-01-11T01:16:57;40.87;;;25.50;;
830;SDS011;397;50.564;7.272;2024-01-11T01:19:24;32.73;;;21.90;;
830;SDS011;397;50.564;7.272;2024-01-11T01:21:51;34.40;;;21.80;;
830;SDS011;397;50.564;7.272;2024-01-11T01:24:18;33.33;;;20.73;;
830;SDS011;397;50.564;7.272;2024-01-11T01:26:46;39.67;;;24.07;;
830;SDS011;397;50.564;7.272;2024-01-11T01:29:13;31.43;;;20.80;;
830;SDS011;397;50.564;7.272;2024-01-11T01:31:40;37.20;;;20.77;;
830;SDS011;397;50.564;7.272;2024-01-11T01:34:08;34.47;;;18.83;;
830;SDS011;397;50.564;7.272;2024-01-11T01:36:35;37.50;;;21.37;;
830;SDS011;397;50.564;7.272;2024-01-11T01:39:02;30.93;;;20.23;;
830;SDS011;397;50.564;7.272;2024-01-11T01:41:30;36.87;;;23.40;;
830;SDS011;397;50.564;7.272;2024-01-11T01:43:57;28.30;;;21.73;;
830;SDS011;397;50.564;7.272;2024-01-11T01:46:24;37.80;;;22.87;;
830;SDS011;397;50.564;7.272;2024-01-11T01:48:52;40.33;;;24.50;;
830;SDS011;397;50.564;7.272;2024-01-11T01:51:21;34.43;;;20.73;;
830;SDS011;397;50.564;7.272;2024-01-11T01:53:49;32.20;;;19.20;;
830;SDS011;397;50.564;7.272;2024-01-11T01:56:16;29.27;;;19.53;;
830;SDS011;397;50.564;7.272;2024-01-11T01:58:44;34.03;;;22.77;;
830;SDS011;397;50.564;7.272;2024-01-11T02:01:11;32.87;;;21.33;;
830;SDS011;397;50.564;7.272;2024-01-11T02:03:39;31.63;;;20.17;;
830;SDS011;397;50.564;7.272;2024-01-11T02:06:07;30.90;;;20.60;;
830;SDS011;397;50.564;7.272;2024-01-11T02:08:34;37.60;;;21.60;;
830;SDS011;397;50.564;7.272;2024-01-11T02:11:02;32.33;;;20.70;;
830;SDS011;397;50.564;7.272;2024-01-11T02:13:29;39.40;;;25.07;;
830;SDS011;397;50.564;7.272;2024-01-11T02:15:57;40.43;;;21.87;;
830;SDS011;397;50.564;7.272;2024-01-11T02:18:24;39.93;;;21.70;;
830;SDS011;397;50.564;7.272;2024-01-11T02:20:52;36.30;;;21.30;;
830;SDS011;397;50.564;7.272;2024-01-11T02:23:19;33.90;;;21.73;;
830;SDS011;397;50.564;7.272;2024-01-11T02:25:48;30.10;;;20.93;;
830;SDS011;397;50.564;7.272;2024-01-11T02:28:15;33.40;;;21.00;;
830;SDS011;397;50.564;7.272;2024-01-11T02:30:42;30.40;;;20.67;;
830;SDS011;397;50.564;7.272;2024-01-11T02:33:09;36.23;;;22.40;;
830;SDS011;397;50.564;7.272;2024-01-11T02:35:38;31.87;;;20.53;;
830;SDS011;397;50.564;7.272;2024-01-11T02:38:07;39.10;;;22.23;;
830;SDS011;397;50.564;7.272;2024-01-11T02:40:34;35.77;;;20.90;;
830;SDS011;397;50.564;7.272;2024-01-11T02:43:08;32.40;;;18.40;;
830;SDS011;397;50.564;7.272;2024-01-11T02:45:36;32.10;;;19.17;;
830;SDS011;397;50.564;7.272;2024-01-11T02:48:04;30.40;;;18.90;;
830;SDS011;397;50.564;7.272;2024-01-11T02:50:32;32.63;;;20.10;;
830;SDS011;397;50.564;7.272;2024-01-11T02:52:59;28.50;;;19.20;;
830;SDS011;397;50.564;7.272;2024-01-11T02:55:26;31.73;;;19.83;;
830;SDS011;397;50.564;7.272;2024-01-11T02:57:53;35.37;;;20.57;;
830;SDS011;397;50.564;7.272;2024-01-11T03:00:21;33.17;;;20.83;;
830;SDS011;397;50.564;7.272;2024-01-11T03:02:48;30.50;;;19.00;;
830;SDS011;397;50.564;7.272;2024-01-11T03:05:15;31.10;;;20.27;;
830;SDS011;397;50.564;7.272;2024-01-11T03:07:43;27.93;;;19.33;;
830;SDS011;397;50.564;7.272;2024-01-11T03:10:10;32.97;;;17.83;;
830;SDS011;397;50.564;7.272;2024-01-11T03:12:39;24.53;;;17.70;;
830;SDS011;397;50.564;7.272;2024-01-11T03:15:06;36.13;;;20.97;;
830;SDS011;397;50.564;7.272;2024-01-11T03:17:33;28.97;;;20.10;;
830;SDS011;397;50.564;7.272;2024-01-11T03:20:01;31.53;;;19.27;;
830;SDS011;397;50.564;7.272;2024-01-11T03:22:30;30.20;;;17.47;;
830;SDS011;397;50.564;7.272;2024-01-11T03:24:57;31.27;;;22.00;;
830;SDS011;397;50.564;7.272;2024-01-11T03:27:24;34.40;;;19.93;;
830;SDS011;397;50.564;7.272;2024-01-11T03:29:52;29.23;;;20.40;;
830;SDS011;397;50.564;7.272;2024-01-11T03:32:19;34.20;;;20.07;;
830;SDS011;397;50.564;7.272;2024-01-11T03:34:46;28.10;;;20.37;;
830;SDS011;397;50.564;7.272;2024-01-11T03:37:13;29.87;;;20.40;;
830;SDS011;397;50.564;7.272;2024-01-11T03:39:41;28.57;;;18.67;;
830;SDS011;397;50.564;7.272;2024-01-11T03:42:08;24.23;;;18.83;;
830;SDS011;397;50.564;7.272;2024-01-11T03:44:36;27.30;;;18.30;;
830;SDS011;397;50.564;7.272;2024-01-11T03:47:04;29.00;;;18.73;;
830;SDS011;397;50.564;7.272;2024-01-11T03:49:31;32.43;;;19.70;;
830;SDS011;397;50.564;7.272;2024-01-11T03:51:58;30.70;;;17.50;;
830;SDS011;397;50.564;7.272;2024-01-11T03:54:25;30.20;;;19.50;;
830;SDS011;397;50.564;7.272;2024-01-11T03:56:53;32.20;;;21.00;;
830;SDS011;397;50.564;7.272;2024-01-11T03:59:20;32.07;;;18.73;;
830;SDS011;397;50.564;7.272;2024-01-11T04:01:47;32.63;;;20.90;;
830;SDS011;397;50.564;7.272;2024-01-11T04:04:15;32.97;;;19.63;;
830;SDS011;397;50.564;7.272;2024-01-11T04:06:42;31.50;;;19.87;;
830;SDS011;397;50.564;7.272;2024-01-11T04:09:09;31.70;;;20.97;;
830;SDS011;397;50.564;7.272;2024-01-11T04:11:36;36.73;;;21.40;;
830;SDS011;397;50.564;7.272;2024-01-11T04:14:04;32.70;;;20.10;;
830;SDS011;397;50.564;7.272;2024-01-11T04:16:31;36.20;;;23.03;;
830;SDS011;397;50.564;7.272;2024-01-11T04:18:58;31.13;;;19.77;;
830;SDS011;397;50.564;7.272;2024-01-11T04:21:26;34.27;;;22.43;;
830;SDS011;397;50.564;7.272;2024-01-11T04:23:57;28.17;;;18.03;;
830;SDS011;397;50.564;7.272;2024-01-11T04:26:24;32.20;;;20.70;;
830;SDS011;397;50.564;7.272;2024-01-11T04:28:51;35.43;;;20.10;;
830;SDS011;397;50.564;7.272;2024-01-11T04:31:19;30.43;;;20.47;;
830;SDS011;397;50.564;7.272;2024-01-11T04:33:46;27.93;;;19.93;;
830;SDS011;397;50.564;7.272;2024-01-11T04:36:13;31.27;;;19.33;;
830;SDS011;397;50.564;7.272;2024-01-11T04:38:41;34.93;;;20.93;;
830;SDS011;397;50.564;7.272;2024-01-11T04:41:08;30.10;;;18.67;;
830;SDS011;397;50.564;7.272;2024-01-11T04:43:41;27.83;;;18.80;;
830;SDS011;397;50.564;7.272;2024-01-11T04:46:15;31.83;;;21.40;;
830;SDS011;397;50.564;7.272;2024-01-11T04:48:43;30.17;;;19.83;;
830;SDS011;397;50.564;7.272;2024-01-11T04:51:11;30.93;;;18.07;;
830;SDS011;397;50.564;7.272;2024-01-11T04:53:42;31.07;;;18.47;;
830;SDS011;397;50.564;7.272;2024-01-11T04:56:11;32.43;;;19.37;;
830;SDS011;397;50.564;7.272;2024-01-11T04:58:39;33.23;;;20.00;;
830;SDS011;397;50.564;7.272;2024-01-11T05:01:07;34.23;;;21.40;;
830;SDS011;397;50.564;7.272;2024-01-11T05:03:34;32.67;;;19.17;;
830;SDS011;397;50.564;7.272;2024-01-11T05:06:01;34.23;;;20.60;;
830;SDS011;397;50.564;7.272;2024-01-11T05:08:29;23.73;;;18.07;;
830;SDS011;397;50.564;7.272;2024-01-11T05:10:56;30.47;;;19.70;;
830;SDS011;397;50.564;7.272;2024-01-11T05:13:23;27.63;;;19.20;;
830;SDS011;397;50.564;7.272;2024-01-11T05:15:51;29.80;;;18.97;;
830;SDS011;397;50.564;7.272;2024-01-11T05:18:18;26.20;;;18.00;;
830;SDS011;397;50.564;7.272;2024-01-11T05:20:45;31.20;;;18.53;;
830;SDS011;397;50.564;7.272;2024-01-11T05:23:12;31.53;;;21.47;;
830;SDS011;397;50.564;7.272;2024-01-11T05:25:40;29.53;;;20.37;;
830;SDS011;397;50.564;7.272;2024-01-11T05:28:07;31.97;;;18.40;;
830;SDS011;397;50.564;7.272;2024-01-11T05:30:34;31.57;;;19.33;;
830;SDS011;397;50.564;7.272;2024-01-11T05:33:01;33.50;;;20.10;;
830;SDS011;397;50.564;7.272;2024-01-11T05:35:29;26.43;;;19.13;;
830;SDS011;397;50.564;7.272;2024-01-11T05:37:56;32.30;;;19.40;;
830;SDS011;397;50.564;7.272;2024-01-11T05:40:23;29.67;;;19.97;;
830;SDS011;397;50.564;7.272;2024-01-11T05:42:51;27.23;;;17.77;;
830;SDS011;397;50.564;7.272;2024-01-11T05:45:18;30.23;;;19.20;;
830;SDS011;397;50.564;7.272;2024-01-11T05:47:45;33.60;;;19.90;;
830;SDS011;397;50.564;7.272;2024-01-11T05:50:13;37.53;;;18.80;;
830;SDS011;397;50.564;7.272;2024-01-11T05:52:40;27.30;;;18.57;;
830;SDS011;397;50.564;7.272;2024-01-11T05:55:08;37.40;;;19.33;;
830;SDS011;397;50.564;7.272;2024-01-11T05:57:35;30.87;;;18.00;;
830;SDS011;397;50.564;7.272;2024-01-11T06:00:03;28.10;;;18.87;;
830;SDS011;397;50.564;7.272;2024-01-11T06:02:31;29.83;;;18.80;;
830;SDS011;397;50.564;7.272;2024-01-11T06:04:58;23.83;;;19.03;;
830;SDS011;397;50.564;7.272;2024-01-11T06:07:25;30.63;;;19.07;;
830;SDS011;397;50.564;7.272;2024-01-11T06:09:53;30.23;;;18.97;;
830;SDS011;397;50.564;7.272;2024-01-11T06:12:20;37.73;;;22.27;;
830;SDS011;397;50.564;7.272;2024-01-11T06:14:47;26.23;;;19.03;;
830;SDS011;397;50.564;7.272;2024-01-11T06:17:14;29.13;;;20.60;;
830;SDS011;397;50.564;7.272;2024-01-11T06:19:42;33.57;;;20.63;;
830;SDS011;397;50.564;7.272;2024-01-11T06:22:09;33.37;;;19.90;;
830;SDS011;397;50.564;7.272;2024-01-11T06:24:36;33.10;;;20.27;;
830;SDS011;397;50.564;7.272;2024-01-11T06:27:04;33.00;;;20.50;;
830;SDS011;397;50.564;7.272;2024-01-11T06:29:31;35.87;;;22.40;;
830;SDS011;397;50.564;7.272;2024-01-11T06:31:58;30.70;;;21.07;;
830;SDS011;397;50.564;7.272;2024-01-11T06:34:25;39.83;;;24.90;;
830;SDS011;397;50.564;7.272;2024-01-11T06:36:53;39.17;;;23.60;;
830;SDS011;397;50.564;7.272;2024-01-11T06:39:20;43.77;;;23.53;;
830;SDS011;397;50.564;7.272;2024-01-11T06:41:48;37.00;;;26.07;;
830;SDS011;397;50.564;7.272;2024-01-11T06:44:15;35.93;;;24.03;;
830;SDS011;397;50.564;7.272;2024-01-11T06:46:42;40.00;;;23.77;;
830;SDS011;397;50.564;7.272;2024-01-11T06:49:10;40.77;;;24.73;;
830;SDS011;397;50.564;7.272;2024-01-11T06:51:37;43.17;;;24.43;;
830;SDS011;397;50.564;7.272;2024-01-11T06:54:06;34.93;;;24.90;;
830;SDS011;397;50.564;7.272;2024-01-11T06:56:33;34.50;;;19.90;;
830;SDS011;397;50.564;7.272;2024-01-11T06:59:02;31.03;;;21.13;;
830;SDS011;397;50.564;7.272;2024-01-11T07:01:29;33.50;;;21.73;;
830;SDS011;397;50.564;7.272;2024-01-11T07:03:56;31.57;;;21.07;;
830;SDS011;397;50.564;7.272;2024-01-11T07:06:24;33.67;;;21.70;;
830;SDS011;397;50.564;7.272;2024-01-11T07:08:51;33.97;;;22.90;;
830;SDS011;397;50.564;7.272;2024-01-11T07:11:18;35.10;;;22.33;;
830;SDS011;397;50.564;7.272;2024-01-11T07:13:45;39.70;;;22.07;;
830;SDS011;397;50.564;7.272;2024-01-11T07:16:13;40.30;;;23.30;;
830;SDS011;397;50.564;7.272;2024-01-11T07:18:40;35.57;;;23.17;;
830;SDS011;397;50.564;7.272;2024-01-11T07:21:07;41.83;;;22.30;;
830;SDS011;397;50.564;7.272;2024-01-11T07:23:34;38.17;;;22.50;;
830;SDS011;397;50.564;7.272;2024-01-11T07:26:02;34.37;;;23.73;;
830;SDS011;397;50.564;7.272;2024-01-11T07:28:29;39.57;;;23.93;;
830;SDS011;397;50.564;7.272;2024-01-11T07:30:56;39.30;;;24.30;;
830;SDS011;397;50.564;7.272;2024-01-11T07:33:24;35.73;;;23.20;;
830;SDS011;397;50.564;7.272;2024-01-11T07:35:51;36.83;;;23.10;;
830;SDS011;397;50.564;7.272;2024-01-11T07:38:18;40.90;;;22.13;;
830;SDS011;397;50.564;7.272;2024-01-11T07:40:45;40.63;;;25.43;;
830;SDS011;397;50.564;7.272;2024-01-11T07:43:13;41.30;;;22.13;;
830;SDS011;397;50.564;7.272;2024-01-11T07:45:41;37.23;;;25.83;;
830;SDS011;397;50.564;7.272;2024-01-11T07:48:08;38.93;;;24.80;;
830;SDS011;397;50.564;7.272;2024-01-11T07:50:35;34.27;;;22.80;;
830;SDS011;397;50.564;7.272;2024-01-11T07:53:03;39.63;;;23.97;;
830;SDS011;397;50.564;7.272;2024-01-11T07:55:31;36.17;;;22.93;;
830;SDS011;397;50.564;7.272;2024-01-11T07:57:58;36.43;;;22.67;;
830;SDS011;397;50.564;7.272;2024-01-11T08:00:26;33.47;;;23.30;;
830;SDS011;397;50.564;7.272;2024-01-11T08:02:53;32.50;;;21.93;;
830;SDS011;397;50.564;7.272;2024-01-11T08:05:20;40.67;;;21.70;;
830;SDS011;397;50.564;7.272;2024-01-11T08:07:47;30.10;;;22.10;;
830;SDS011;397;50.564;7.272;2024-01-11T08:10:15;38.23;;;24.37;;
830;SDS011;397;50.564;7.272;2024-01-11T08:12:42;32.50;;;20.17;;
830;SDS011;397;50.564;7.272;2024-01-11T08:15:09;41.23;;;22.93;;
830;SDS011;397;50.564;7.272;2024-01-11T08:17:39;30.90;;;20.10;;
830;SDS011;397;50.564;7.272;2024-01-11T08:20:06;41.43;;;22.33;;
830;SDS011;397;50.564;7.272;2024-01-11T08:22:34;39.90;;;20.87;;
830;SDS011;397;50.564;7.272;2024-01-11T08:25:03;37.00;;;22.93;;
830;SDS011;397;50.564;7.272;2024-01-11T08:27:31;36.57;;;20.10;;
830;SDS011;397;50.564;7.272;2024-01-11T08:29:59;31.60;;;20.20;;
830;SDS011;397;50.564;7.272;2024-01-11T08:32:30;33.30;;;18.73;;
830;SDS011;397;50.564;7.272;2024-01-11T08:34:59;40.40;;;22.63;;
830;SDS011;397;50.564;7.272;2024-01-11T08:37:27;28.77;;;20.70;;
830;SDS011;397;50.564;7.272;2024-01-11T08:39:54;35.60;;;20.37;;
830;SDS011;397;50.564;7.272;2024-01-11T08:42:21;36.67;;;20.97;;
830;SDS011;397;50.564;7.272;2024-01-11T08:44:48;44.23;;;22.73;;
830;SDS011;397;50.564;7.272;2024-01-11T08:47:16;35.47;;;22.67;;
830;SDS011;397;50.564;7.272;2024-01-11T08:49:43;39.17;;;24.20;;
830;SDS011;397;50.564;7.272;2024-01-11T08:52:10;42.93;;;28.30;;
830;SDS011;397;50.564;7.272;2024-01-11T08:54:37;50.57;;;30.17;;
830;SDS011;397;50.564;7.272;2024-01-11T08:57:05;43.40;;;28.27;;
830;SDS011;397;50.564;7.272;2024-01-11T08:59:32;48.57;;;26.93;;
830;SDS011;397;50.564;7.272;2024-01-11T09:01:59;39.93;;;26.13;;
830;SDS011;397;50.564;7.272;2024-01-11T09:04:26;36.13;;;25.90;;
830;SDS011;397;50.564;7.272;2024-01-11T09:06:55;42.40;;;25.80;;
830;SDS011;397;50.564;7.272;2024-01-11T09:09:22;39.87;;;26.63;;
830;SDS011;397;50.564;7.272;2024-01-11T09:11:50;41.20;;;27.33;;
830;SDS011;397;50.564;7.272;2024-01-11T09:14:18;42.57;;;25.57;;
830;SDS011;397;50.564;7.272;2024-01-11T09:16:45;35.90;;;24.60;;
830;SDS011;397;50.564;7.272;2024-01-11T09:19:14;41.33;;;26.20;;
830;SDS011;397;50.564;7.272;2024-01-11T09:21:41;37.47;;;24.60;;
830;SDS011;397;50.564;7.272;2024-01-11T09:24:08;38.10;;;23.10;;
830;SDS011;397;50.564;7.272;2024-01-11T09:26:36;41.00;;;26.77;;
830;SDS011;397;50.564;7.272;2024-01-11T09:29:03;38.97;;;25.30;;
830;SDS011;397;50.564;7.272;2024-01-11T09:31:30;39.97;;;24.70;;
830;SDS011;397;50.564;7.272;2024-01-11T09:33:57;34.90;;;23.17;;
830;SDS011;397;50.564;7.272;2024-01-11T09:36:25;37.40;;;22.50;;
830;SDS011;397;50.564;7.272;2024-01-11T09:38:52;37.40;;;25.70;;
830;SDS011;397;50.564;7.272;2024-01-11T09:41:20;38.60;;;24.43;;
830;SDS011;397;50.564;7.272;2024-01-11T09:43:47;42.80;;;24.80;;
830;SDS011;397;50.564;7.272;2024-01-11T09:46:15;40.63;;;24.50;;
830;SDS011;397;50.564;7.272;2024-01-11T09:48:43;37.87;;;24.63;;
830;SDS011;397;50.564;7.272;2024-01-11T09:51:10;42.60;;;23.37;;
830;SDS011;397;50.564;7.272;2024-01-11T09:53:38;37.17;;;24.27;;
830;SDS011;397;50.564;7.272;2024-01-11T09:56:10;35.47;;;25.07;;
830;SDS011;397;50.564;7.272;2024-01-11T09:58:34;39.63;;;24.03;;
830;SDS011;397;50.564;7.272;2024-01-11T10:01:08;34.07;;;24.70;;
830;SDS011;397;50.564;7.272;2024-01-11T10:03:43;39.27;;;24.10;;
830;SDS011;397;50.564;7.272;2024-01-11T10:06:08;41.93;;;24.83;;
830;SDS011;397;50.564;7.272;2024-01-11T10:08:36;33.50;;;23.47;;
830;SDS011;397;50.564;7.272;2024-01-11T10:11:03;40.27;;;24.33;;
830;SDS011;397;50.564;7.272;2024-01-11T10:13:31;43.70;;;25.57;;
830;SDS011;397;50.564;7.272;2024-01-11T10:16:06;34.87;;;24.53;;
830;SDS011;397;50.564;7.272;2024-01-11T10:18:34;41.87;;;25.23;;
830;SDS011;397;50.564;7.272;2024-01-11T10:21:01;36.03;;;26.40;;
830;SDS011;397;50.564;7.272;2024-01-11T10:23:29;35.17;;;24.80;;
830;SDS011;397;50.564;7.272;2024-01-11T10:25:59;40.67;;;26.53;;
830;SDS011;397;50.564;7.272;2024-01-11T10:28:27;47.10;;;31.10;;
830;SDS011;397;50.564;7.272;2024-01-11T10:30:54;45.73;;;26.77;;
830;SDS011;397;50.564;7.272;2024-01-11T10:33:24;40.30;;;24.13;;
830;SDS011;397;50.564;7.272;2024-01-11T10:35:51;41.50;;;27.40;;
830;SDS011;397;50.564;7.272;2024-01-11T10:38:19;36.10;;;25.30;;
830;SDS011;397;50.564;7.272;2024-01-11T10:40:47;40.37;;;26.13;;
830;SDS011;397;50.564;7.272;2024-01-11T10:43:17;40.60;;;25.80;;
830;SDS011;397;50.564;7.272;2024-01-11T10:45:44;41.87;;;25.37;;
830;SDS011;397;50.564;7.272;2024-01-11T10:48:13;39.50;;;26.47;;
830;SDS011;397;50.564;7.272;2024-01-11T10:50:44;42.10;;;26.33;;
830;SDS011;397;50.564;7.272;2024-01-11T10:55:43;37.37;;;26.87;;
830;SDS011;397;50.564;7.272;2024-01-11T10:58:11;38.13;;;25.57;;
830;SDS011;397;50.564;7.272;2024-01-11T11:00:39;38.30;;;26.57;;
830;SDS011;397;50.564;7.272;2024-01-11T11:03:06;42.33;;;26.10;;
830;SDS011;397;50.564;7.272;2024-01-11T11:05:38;39.90;;;26.10;;
830;SDS011;397;50.564;7.272;2024-01-11T11:08:02;45.93;;;27.37;;
830;SDS011;397;50.564;7.272;2024-01-11T11:10:32;38.93;;;26.83;;
830;SDS011;397;50.564;7.272;2024-01-11T11:13:00;40.93;;;29.30;;
830;SDS011;397;50.564;7.272;2024-01-11T11:15:28;41.17;;;28.07;;
830;SDS011;397;50.564;7.272;2024-01-11T11:17:55;43.10;;;27.83;;
830;SDS011;397;50.564;7.272;2024-01-11T11:20:23;40.63;;;28.60;;
830;SDS011;397;50.564;7.272;2024-01-11T11:23:03;41.10;;;26.87;;
830;SDS011;397;50.564;7.272;2024-01-11T11:25:31;45.20;;;32.60;;
830;SDS011;397;50.564;7.272;2024-01-11T11:27:58;43.20;;;30.63;;
830;SDS011;397;50.564;7.272;2024-01-11T11:30:30;42.37;;;28.33;;
830;SDS011;397;50.564;7.272;2024-01-11T11:32:57;43.90;;;28.87;;
830;SDS011;397;50.564;7.272;2024-01-11T11:35:24;45.53;;;28.07;;
830;SDS011;397;50.564;7.272;2024-01-11T11:37:55;43.87;;;28.00;;
830;SDS011;397;50.564;7.272;2024-01-11T11:40:38;39.67;;;29.63;;
830;SDS011;397;50.564;7.272;2024-01-11T11:43:06;48.40;;;29.97;;
830;SDS011;397;50.564;7.272;2024-01-11T11:45:33;38.97;;;26.00;;
830;SDS011;397;50.564;7.272;2024-01-11T11:48:01;45.47;;;26.90;;
830;SDS011;397;50.564;7.272;2024-01-11T11:50:29;40.03;;;26.43;;
830;SDS011;397;50.564;7.272;2024-01-11T11:52:57;33.10;;;24.70;;
830;SDS011;397;50.564;7.272;2024-01-11T11:55:25;37.33;;;25.60;;
830;SDS011;397;50.564;7.272;2024-01-11T11:57:52;40.63;;;26.07;;
830;SDS011;397;50.564;7.272;2024-01-11T12:00:20;36.30;;;24.83;;
830;SDS011;397;50.564;7.272;2024-01-11T12:02:47;39.53;;;26.93;;
830;SDS011;397;50.564;7.272;2024-01-11T12:05:15;44.03;;;27.90;;
830;SDS011;397;50.564;7.272;2024-01-11T12:07:43;39.70;;;27.57;;
830;SDS011;397;50.564;7.272;2024-01-11T12:10:11;42.33;;;28.77;;
830;SDS011;397;50.564;7.272;2024-01-11T12:12:39;44.97;;;30.33;;
830;SDS011;397;50.564;7.272;2024-01-11T12:15:07;36.80;;;25.97;;
830;SDS011;397;50.564;7.272;2024-01-11T12:17:34;40.90;;;27.00;;
830;SDS011;397;50.564;7.272;2024-01-11T12:20:02;41.10;;;28.10;;
830;SDS011;397;50.564;7.272;2024-01-11T12:22:29;37.37;;;28.07;;
830;SDS011;397;50.564;7.272;2024-01-11T12:24:57;38.07;;;27.20;;
830;SDS011;397;50.564;7.272;2024-01-11T12:27:24;39.00;;;27.27;;
830;SDS011;397;50.564;7.272;2024-01-11T12:29:52;40.17;;;26.83;;
830;SDS011;397;50.564;7.272;2024-01-11T12:32:19;38.50;;;28.30;;
830;SDS011;397;50.564;7.272;2024-01-11T12:34:46;40.07;;;26.10;;
830;SDS011;397;50.564;7.272;2024-01-11T12:37:15;50.17;;;28.90;;
830;SDS011;397;50.564;7.272;2024-01-11T12:39:42;42.53;;;29.03;;
830;SDS011;397;50.564;7.272;2024-01-11T12:42:09;39.57;;;25.33;;
830;SDS011;397;50.564;7.272;2024-01-11T12:44:37;36.57;;;26.30;;
830;SDS011;397;50.564;7.272;2024-01-11T12:47:07;36.43;;;25.30;;
830;SDS011;397;50.564;7.272;2024-01-11T12:49:35;37.83;;;23.90;;
830;SDS011;397;50.564;7.272;2024-01-11T12:52:02;39.63;;;26.97;;
830;SDS011;397;50.564;7.272;2024-01-11T12:54:31;36.63;;;24.50;;
830;SDS011;397;50.564;7.272;2024-01-11T12:56:59;38.33;;;26.83;;
830;SDS011;397;50.564;7.272;2024-01-11T12:59:27;36.67;;;26.60;;
830;SDS011;397;50.564;7.272;2024-01-11T13:01:55;38.83;;;25.67;;
830;SDS011;397;50.564;7.272;2024-01-11T13:04:23;41.13;;;27.27;;
830;SDS011;397;50.564;7.272;2024-01-11T13:06:50;36.97;;;25.80;;
830;SDS011;397;50.564;7.272;2024-01-11T13:09:17;42.60;;;26.90;;
830;SDS011;397;50.564;7.272;2024-01-11T13:11:44;46.57;;;26.97;;
830;SDS011;397;50.564;7.272;2024-01-11T13:14:12;36.50;;;24.83;;
830;SDS011;397;50.564;7.272;2024-01-11T13:16:41;41.80;;;28.73;;
830;SDS011;397;50.564;7.272;2024-01-11T13:19:08;36.20;;;26.17;;
830;SDS011;397;50.564;7.272;2024-01-11T13:21:37;39.80;;;27.13;;
830;SDS011;397;50.564;7.272;2024-01-11T13:24:05;35.67;;;25.40;;
830;SDS011;397;50.564;7.272;2024-01-11T13:26:34;38.30;;;25.43;;
830;SDS011;397;50.564;7.272;2024-01-11T13:29:03;37.77;;;25.03;;
830;SDS011;397;50.564;7.272;2024-01-11T13:31:30;46.87;;;26.53;;
830;SDS011;397;50.564;7.272;2024-01-11T13:33:57;40.10;;;29.90;;
830;SDS011;397;50.564;7.272;2024-01-11T13:36:24;44.10;;;28.77;;
830;SDS011;397;50.564;7.272;2024-01-11T13:38:52;29.93;;;23.87;;
830;SDS011;397;50.564;7.272;2024-01-11T13:41:19;41.57;;;28.47;;
830;SDS011;397;50.564;7.272;2024-01-11T13:43:47;34.37;;;26.40;;
830;SDS011;397;50.564;7.272;2024-01-11T13:46:14;40.90;;;29.73;;
830;SDS011;397;50.564;7.272;2024-01-11T13:48:43;40.60;;;28.73;;
830;SDS011;397;50.564;7.272;2024-01-11T13:51:10;46.50;;;31.10;;
830;SDS011;397;50.564;7.272;2024-01-11T13:53:39;44.57;;;28.80;;
830;SDS011;397;50.564;7.272;2024-01-11T13:56:06;41.10;;;29.00;;
830;SDS011;397;50.564;7.272;2024-01-11T13:58:33;41.47;;;26.93;;
830;SDS011;397;50.564;7.272;2024-01-11T14:01:01;41.30;;;27.97;;
830;SDS011;397;50.564;7.272;2024-01-11T14:03:28;33.97;;;26.13;;
830;SDS011;397;50.564;7.272;2024-01-11T14:05:55;37.10;;;27.77;;
830;SDS011;397;50.564;7.272;2024-01-11T14:08:23;38.83;;;28.37;;
830;SDS011;397;50.564;7.272;2024-01-11T14:10:50;39.40;;;26.90;;
830;SDS011;397;50.564;7.272;2024-01-11T14:13:18;42.80;;;29.57;;
830;SDS011;397;50.564;7.272;2024-01-11T14:15:45;46.00;;;29.30;;
830;SDS011;397;50.564;7.272;2024-01-11T14:18:14;40.47;;;27.80;;
830;SDS011;397;50.564;7.272;2024-01-11T14:20:41;39.10;;;28.87;;
830;SDS011;397;50.564;7.272;2024-01-11T14:23:08;43.20;;;30.63;;
830;SDS011;397;50.564;7.272;2024-01-11T14:25:36;38.40;;;28.07;;
830;SDS011;397;50.564;7.272;2024-01-11T14:28:03;47.57;;;30.33;;
830;SDS011;397;50.564;7.272;2024-01-11T14:30:31;42.90;;;25.57;;
830;SDS011;397;50.564;7.272;2024-01-11T14:32:59;40.90;;;28.10;;
830;SDS011;397;50.564;7.272;2024-01-11T14:35:26;45.03;;;30.10;;
830;SDS011;397;50.564;7.272;2024-01-11T14:37:53;40.83;;;29.20;;
830;SDS011;397;50.564;7.272;2024-01-11T14:40:21;39.97;;;27.90;;
830;SDS011;397;50.564;7.272;2024-01-11T14:42:48;37.83;;;27.53;;
830;SDS011;397;50.564;7.272;2024-01-11T14:45:15;42.87;;;29.60;;
830;SDS011;397;50.564;7.272;2024-01-11T14:47:43;43.60;;;28.97;;
830;SDS011;397;50.564;7.272;2024-01-11T14:50:10;39.27;;;29.27;;
830;SDS011;397;50.564;7.272;2024-01-11T14:52:38;38.37;;;27.37;;
830;SDS011;397;50.564;7.272;2024-01-11T14:55:06;43.80;;;28.93;;
830;SDS011;397;50.564;7.272;2024-01-11T14:57:33;43.97;;;31.70;;
830;SDS011;397;50.564;7.272;2024-01-11T15:00:01;47.43;;;29.80;;
830;SDS011;397;50.564;7.272;2024-01-11T15:02:28;45.60;;;31.03;;
830;SDS011;397;50.564;7.272;2024-01-11T15:04:55;46.23;;;34.37;;
830;SDS011;397;50.564;7.272;2024-01-11T15:07:24;47.33;;;31.93;;
830;SDS011;397;50.564;7.272;2024-01-11T15:09:52;52.73;;;33.33;;
830;SDS011;397;50.564;7.272;2024-01-11T15:12:19;42.70;;;33.30;;
830;SDS011;397;50.564;7.272;2024-01-11T15:14:48;44.47;;;30.53;;
830;SDS011;397;50.564;7.272;2024-01-11T15:17:18;41.53;;;31.53;;
830;SDS011;397;50.564;7.272;2024-01-11T15:19:45;46.60;;;31.47;;